createdAt,value
2022-09-12T00:02:03.969Z,13.10
2022-09-12T00:04:30.849Z,13.00
2022-09-12T00:06:57.713Z,13.10
2022-09-12T00:09:24.522Z,13.00
2022-09-12T00:11:51.344Z,13.00
2022-09-12T00:14:19.696Z,12.90
2022-09-12T00:16:46.898Z,12.90
2022-09-12T00:19:13.812Z,12.90
2022-09-12T00:21:41.143Z,12.90
2022-09-12T00:24:09.473Z,12.90
2022-09-12T00:26:36.735Z,12.90
2022-09-12T00:29:04.415Z,12.80
2022-09-12T00:31:31.382Z,12.80
2022-09-12T00:34:00.872Z,12.80
2022-09-12T00:36:29.921Z,12.70
2022-09-12T00:38:56.870Z,12.80
2022-09-12T00:41:26.880Z,12.70
2022-09-12T00:43:58.676Z,12.70
2022-09-12T00:46:41.952Z,12.70
2022-09-12T00:49:14.171Z,12.70
2022-09-12T00:51:45.600Z,12.80
2022-09-12T00:54:26.186Z,12.80
2022-09-12T00:56:57.342Z,12.70
2022-09-12T00:59:37.219Z,12.70
2022-09-12T01:02:04.247Z,12.60
2022-09-12T01:04:32.020Z,12.60
2022-09-12T01:06:59.000Z,12.70
2022-09-12T01:09:25.844Z,12.60
2022-09-12T01:11:53.628Z,12.60
2022-09-12T01:14:21.142Z,12.60
2022-09-12T01:16:50.074Z,12.50
2022-09-12T01:19:43.016Z,12.40
2022-09-12T01:22:47.510Z,12.50
2022-09-12T01:25:35.888Z,12.40
2022-09-12T01:28:34.799Z,12.50
2022-09-12T01:31:08.668Z,12.40
2022-09-12T01:33:47.762Z,12.40
2022-09-12T01:36:34.672Z,12.30
2022-09-12T01:39:06.056Z,12.30
2022-09-12T01:41:54.930Z,12.30
2022-09-12T01:44:33.231Z,12.20
2022-09-12T01:47:34.186Z,12.30
2022-09-12T01:50:09.746Z,12.20
2022-09-12T01:52:49.503Z,12.20
2022-09-12T01:55:25.878Z,12.30
2022-09-12T01:58:00.304Z,12.30
2022-09-12T02:00:27.401Z,12.20
2022-09-12T02:03:02.778Z,12.20
2022-09-12T02:05:41.085Z,12.30
2022-09-12T02:08:13.144Z,12.20
2022-09-12T02:10:50.696Z,12.10
2022-09-12T02:13:24.720Z,12.20
2022-09-12T02:15:58.385Z,12.20
2022-09-12T02:18:27.553Z,12.20
2022-09-12T02:20:56.240Z,12.20
2022-09-12T02:23:28.695Z,12.10
2022-09-12T02:26:01.157Z,12.10
2022-09-12T02:28:34.778Z,12.10
2022-09-12T02:31:27.472Z,12.10
2022-09-12T02:34:09.839Z,12.10
2022-09-12T02:36:52.175Z,12.00
2022-09-12T02:39:21.215Z,12.00
2022-09-12T02:41:52.052Z,12.00
2022-09-12T02:44:19.610Z,12.00
2022-09-12T02:46:53.671Z,12.00
2022-09-12T02:49:20.695Z,12.00
2022-09-12T02:51:48.755Z,12.00
2022-09-12T02:54:17.768Z,11.90
2022-09-12T02:56:46.176Z,11.90
2022-09-12T02:59:16.596Z,12.00
2022-09-12T03:02:12.389Z,11.90
2022-09-12T03:05:16.902Z,12.00
2022-09-12T03:07:52.628Z,12.00
2022-09-12T03:10:33.308Z,11.90
2022-09-12T03:13:41.294Z,11.90
2022-09-12T03:16:49.945Z,11.90
2022-09-12T03:19:52.824Z,11.80
2022-09-12T03:22:28.460Z,11.80
2022-09-12T03:25:16.479Z,11.80
2022-09-12T03:27:56.367Z,11.80
2022-09-12T03:30:23.476Z,11.80
2022-09-12T03:32:52.109Z,11.80
2022-09-12T03:35:23.280Z,11.80
2022-09-12T03:37:50.992Z,11.80
2022-09-12T03:40:18.463Z,11.70
2022-09-12T03:42:45.309Z,11.80
2022-09-12T03:45:12.167Z,11.80
2022-09-12T03:47:39.706Z,11.80
2022-09-12T03:50:07.095Z,11.80
2022-09-12T03:52:34.047Z,11.80
2022-09-12T03:55:00.923Z,11.70
2022-09-12T03:57:27.778Z,11.70
2022-09-12T03:59:54.593Z,11.70
2022-09-12T04:02:21.452Z,11.80
2022-09-12T04:04:48.920Z,11.80
2022-09-12T04:07:16.781Z,11.70
2022-09-12T04:09:43.595Z,11.70
2022-09-12T04:12:10.713Z,11.70
2022-09-12T04:14:37.676Z,11.70
2022-09-12T04:17:04.657Z,11.70
2022-09-12T04:19:31.550Z,11.70
2022-09-12T04:21:58.345Z,11.70
2022-09-12T04:24:25.272Z,11.70
2022-09-12T04:26:52.207Z,11.70
2022-09-12T04:29:19.223Z,11.70
2022-09-12T04:31:46.107Z,11.70
2022-09-12T04:34:12.900Z,11.70
2022-09-12T04:36:39.921Z,11.70
2022-09-12T04:39:07.823Z,11.70
2022-09-12T04:41:37.321Z,11.70
2022-09-12T04:44:08.641Z,11.70
2022-09-12T04:46:38.708Z,11.70
2022-09-12T04:49:05.834Z,11.70
2022-09-12T04:51:35.970Z,11.70
2022-09-12T04:54:15.281Z,11.70
2022-09-12T04:56:45.886Z,11.70
2022-09-12T04:59:14.353Z,11.70
2022-09-12T05:01:41.670Z,11.70
2022-09-12T05:04:10.815Z,11.70
2022-09-12T05:06:38.375Z,11.70
2022-09-12T05:09:06.927Z,11.70
2022-09-12T05:14:25.365Z,11.70
2022-09-12T05:16:52.377Z,11.80
2022-09-12T05:19:19.275Z,11.80
2022-09-12T05:21:46.108Z,11.80
2022-09-12T05:24:13.015Z,11.80
2022-09-12T05:26:39.833Z,11.90
2022-09-12T05:29:07.264Z,12.00
2022-09-12T05:31:35.010Z,12.00
2022-09-12T05:34:04.712Z,12.10
2022-09-12T05:36:32.095Z,12.10
2022-09-12T05:39:01.923Z,12.20
2022-09-12T05:41:31.048Z,12.20
2022-09-12T05:44:00.644Z,12.30
2022-09-12T05:46:30.710Z,12.40
2022-09-12T05:48:58.479Z,12.40
2022-09-12T05:51:28.146Z,12.50
2022-09-12T05:54:01.190Z,12.50
2022-09-12T05:56:30.712Z,12.60
2022-09-12T05:59:05.736Z,12.70
2022-09-12T06:01:34.587Z,12.80
2022-09-12T06:04:04.060Z,12.80
2022-09-12T06:06:32.952Z,13.00
2022-09-12T06:09:01.957Z,13.10
2022-09-12T06:11:31.762Z,13.20
2022-09-12T06:14:00.087Z,13.30
2022-09-12T06:16:32.800Z,13.30
2022-09-12T06:19:01.848Z,13.40
2022-09-12T06:21:30.820Z,13.50
2022-09-12T06:24:01.685Z,13.50
2022-09-12T06:26:29.324Z,13.60
2022-09-12T06:28:58.223Z,13.60
2022-09-12T06:31:31.266Z,13.70
2022-09-12T06:33:59.884Z,13.80
2022-09-12T06:36:32.254Z,13.90
2022-09-12T06:39:02.136Z,13.90
2022-09-12T06:41:30.036Z,14.00
2022-09-12T06:43:57.788Z,14.10
2022-09-12T06:46:25.949Z,14.20
2022-09-12T06:48:53.198Z,14.30
2022-09-12T06:51:20.601Z,14.40
2022-09-12T06:53:49.005Z,14.50
2022-09-12T06:56:21.358Z,14.40
2022-09-12T06:58:49.815Z,14.50
2022-09-12T07:01:21.911Z,14.70
2022-09-12T07:03:55.228Z,14.80
2022-09-12T07:06:31.533Z,14.90
2022-09-12T07:08:59.805Z,15.00
2022-09-12T07:11:31.731Z,15.10
2022-09-12T07:14:00.136Z,15.10
2022-09-12T07:16:27.345Z,15.30
2022-09-12T07:18:57.264Z,15.50
2022-09-12T07:21:24.550Z,15.50
2022-09-12T07:24:09.835Z,15.70
2022-09-12T07:26:37.524Z,15.70
2022-09-12T07:29:32.373Z,15.80
2022-09-12T07:31:52.165Z,15.90
2022-09-12T07:34:19.028Z,15.90
2022-09-12T07:36:45.876Z,16.10
2022-09-12T07:39:12.703Z,16.20
2022-09-12T07:41:39.683Z,16.40
2022-09-12T07:44:09.247Z,16.40
2022-09-12T07:46:36.203Z,16.30
2022-09-12T07:49:03.268Z,16.40
2022-09-12T07:51:30.805Z,16.50
2022-09-12T07:53:58.108Z,16.60
2022-09-12T07:56:29.690Z,16.70
2022-09-12T07:58:57.827Z,17.00
2022-09-12T08:01:24.938Z,17.20
2022-09-12T08:03:58.078Z,17.20
2022-09-12T08:06:27.228Z,17.30
2022-09-12T08:09:03.003Z,17.40
2022-09-12T08:11:30.593Z,17.40
2022-09-12T08:13:58.381Z,17.60
2022-09-12T08:16:28.141Z,17.70
2022-09-12T08:18:55.512Z,18.00
2022-09-12T08:21:25.447Z,18.10
2022-09-12T08:23:58.246Z,18.10
2022-09-12T08:26:25.175Z,18.20
2022-09-12T08:28:53.523Z,18.20
2022-09-12T08:31:22.328Z,18.40
2022-09-12T08:33:49.296Z,18.50
2022-09-12T08:36:24.298Z,18.50
2022-09-12T08:38:59.235Z,18.70
2022-09-12T08:41:40.740Z,19.00
2022-09-12T08:44:22.927Z,19.10
2022-09-12T08:47:14.379Z,19.30
2022-09-12T08:50:03.093Z,19.40
2022-09-12T08:52:33.908Z,19.30
2022-09-12T08:55:02.892Z,19.40
2022-09-12T08:57:29.778Z,19.40
2022-09-12T08:59:56.914Z,19.50
2022-09-12T09:03:04.951Z,19.80
2022-09-12T09:05:51.921Z,20.10
2022-09-12T09:08:28.441Z,20.00
2022-09-12T09:11:14.228Z,19.80
2022-09-12T09:14:08.723Z,19.90
2022-09-12T09:16:38.237Z,19.90
2022-09-12T09:19:17.524Z,20.00
2022-09-12T09:21:52.590Z,20.10
2022-09-12T09:24:24.967Z,20.10
2022-09-12T09:27:02.947Z,20.30
2022-09-12T09:29:53.545Z,20.40
2022-09-12T09:32:27.544Z,20.50
2022-09-12T09:34:54.879Z,20.70
2022-09-12T09:37:49.651Z,20.90
2022-09-12T09:40:39.569Z,21.00
2022-09-12T09:43:23.715Z,21.30
2022-09-12T09:45:52.237Z,21.40
2022-09-12T09:48:20.991Z,21.50
2022-09-12T09:50:49.567Z,21.60
2022-09-12T09:53:36.595Z,21.50
2022-09-12T09:56:10.297Z,21.70
2022-09-12T09:58:37.397Z,21.70
2022-09-12T10:01:15.692Z,21.60
2022-09-12T10:03:52.040Z,21.70
2022-09-12T10:06:26.194Z,21.80
2022-09-12T10:09:23.815Z,21.80
2022-09-12T10:11:52.357Z,22.00
2022-09-12T10:14:41.188Z,22.30
2022-09-12T10:17:33.128Z,22.60
2022-09-12T10:20:19.955Z,22.50
2022-09-12T10:22:48.475Z,22.50
2022-09-12T10:25:18.675Z,22.70
2022-09-12T10:27:52.167Z,22.90
2022-09-12T10:30:21.819Z,23.10
2022-09-12T10:32:54.151Z,22.90
2022-09-12T10:35:30.591Z,22.80
2022-09-12T10:38:02.521Z,22.80
2022-09-12T10:40:36.824Z,22.90
2022-09-12T10:43:17.826Z,23.10
2022-09-12T10:45:44.769Z,23.20
2022-09-12T10:48:33.564Z,23.10
2022-09-12T10:51:01.117Z,23.30
2022-09-12T10:53:34.654Z,23.20
2022-09-12T10:56:04.092Z,23.00
2022-09-12T10:58:46.998Z,23.20
2022-09-12T11:01:36.831Z,23.40
2022-09-12T11:04:41.926Z,23.60
2022-09-12T11:07:29.804Z,23.60
2022-09-12T11:10:40.474Z,23.20
2022-09-12T11:13:27.379Z,23.30
2022-09-12T11:16:03.220Z,23.70
2022-09-12T11:18:33.156Z,24.20
2022-09-12T11:21:28.172Z,24.40
2022-09-12T11:24:18.499Z,24.40
2022-09-12T11:26:54.454Z,24.30
2022-09-12T11:29:27.844Z,24.40
2022-09-12T11:32:32.238Z,24.40
2022-09-12T11:35:17.959Z,24.40
2022-09-12T11:37:53.689Z,24.60
2022-09-12T11:40:46.568Z,25.10
2022-09-12T11:43:38.043Z,24.80
2022-09-12T11:46:42.332Z,24.80
2022-09-12T11:49:15.708Z,24.90
2022-09-12T11:51:54.078Z,25.10
2022-09-12T11:54:33.660Z,25.10
2022-09-12T11:57:55.126Z,25.40
2022-09-12T12:00:23.662Z,25.20
2022-09-12T12:03:01.876Z,25.40
2022-09-12T12:05:52.247Z,25.60
2022-09-12T12:08:29.251Z,25.60
2022-09-12T12:11:04.321Z,25.50
2022-09-12T12:13:56.026Z,25.60
2022-09-12T12:16:35.261Z,25.60
2022-09-12T12:19:14.491Z,25.60
2022-09-12T12:21:46.217Z,25.40
2022-09-12T12:24:20.395Z,25.60
2022-09-12T12:27:23.178Z,25.80
2022-09-12T12:29:50.383Z,25.70
2022-09-12T12:32:17.628Z,26.10
2022-09-12T12:34:46.377Z,26.40
2022-09-12T12:37:19.345Z,26.00
2022-09-12T12:39:47.942Z,26.20
2022-09-12T12:42:35.797Z,26.10
2022-09-12T12:45:21.305Z,26.00
2022-09-12T12:48:08.701Z,26.30
2022-09-12T12:50:35.683Z,26.50
2022-09-12T12:53:07.329Z,26.70
2022-09-12T12:55:39.235Z,26.70
2022-09-12T12:58:18.418Z,26.90
2022-09-12T13:00:49.939Z,27.10
2022-09-12T13:03:30.853Z,27.40
2022-09-12T13:06:08.069Z,27.30
2022-09-12T13:08:57.069Z,27.30
2022-09-12T13:12:04.471Z,27.30
2022-09-12T13:14:35.600Z,27.60
2022-09-12T13:17:06.563Z,27.40
2022-09-12T13:19:36.939Z,28.20
2022-09-12T13:22:10.414Z,28.70
2022-09-12T13:24:47.127Z,29.00
2022-09-12T13:27:24.589Z,29.00
2022-09-12T13:30:09.168Z,29.30
2022-09-12T13:32:36.375Z,30.10
2022-09-12T13:35:14.035Z,30.10
2022-09-12T13:37:54.100Z,30.20
2022-09-12T13:40:42.692Z,29.90
2022-09-12T13:43:13.718Z,29.70
2022-09-12T13:45:41.452Z,30.00
2022-09-12T13:48:16.496Z,29.80
2022-09-12T13:50:57.480Z,29.80
2022-09-12T13:53:31.443Z,30.20
2022-09-12T13:55:59.707Z,30.60
2022-09-12T13:58:33.226Z,29.90
2022-09-12T14:01:01.127Z,30.60
2022-09-12T14:03:49.592Z,31.60
2022-09-12T14:06:18.935Z,31.20
2022-09-12T14:08:48.163Z,30.80
2022-09-12T14:11:27.447Z,31.70
2022-09-12T14:13:55.926Z,31.20
2022-09-12T14:16:24.060Z,31.60
2022-09-12T14:18:54.626Z,32.00
2022-09-12T14:21:41.926Z,32.10
2022-09-12T14:24:12.544Z,32.60
2022-09-12T14:26:41.207Z,32.10
2022-09-12T14:29:08.830Z,32.00
2022-09-12T14:31:38.530Z,32.20
2022-09-12T14:34:19.184Z,31.80
2022-09-12T14:36:51.659Z,31.10
2022-09-12T14:39:32.823Z,31.50
2022-09-12T14:42:18.826Z,31.80
2022-09-12T14:45:15.291Z,31.20
2022-09-12T14:47:43.590Z,31.50
2022-09-12T14:50:26.197Z,31.50
2022-09-12T14:53:08.149Z,32.00
2022-09-12T14:55:42.571Z,31.70
2022-09-12T14:58:22.552Z,32.10
2022-09-12T15:01:00.028Z,32.80
2022-09-12T15:03:36.708Z,32.10
2022-09-12T15:06:08.094Z,32.10
2022-09-12T15:08:35.062Z,31.30
2022-09-12T15:11:01.940Z,32.10
2022-09-12T15:13:38.597Z,32.20
2022-09-12T15:16:09.586Z,31.70
2022-09-12T15:18:36.560Z,31.10
2022-09-12T15:21:07.660Z,31.70
2022-09-12T15:23:51.914Z,31.10
2022-09-12T15:26:22.551Z,30.30
2022-09-12T15:28:50.247Z,30.40
2022-09-12T15:31:27.905Z,30.40
2022-09-12T15:33:55.999Z,30.90
2022-09-12T15:36:24.214Z,31.20
2022-09-12T15:38:51.890Z,30.30
2022-09-12T15:41:32.228Z,29.90
2022-09-12T15:43:59.440Z,29.30
2022-09-12T15:46:26.261Z,28.90
2022-09-12T15:48:53.092Z,28.50
2022-09-12T15:51:21.575Z,28.40
2022-09-12T15:53:49.600Z,27.70
2022-09-12T15:56:18.421Z,27.40
2022-09-12T15:58:57.730Z,27.30
2022-09-12T16:01:26.146Z,27.20
2022-09-12T16:03:53.045Z,27.00
2022-09-12T16:06:19.881Z,26.90
2022-09-12T16:08:46.852Z,26.70
2022-09-12T16:11:27.375Z,26.90
2022-09-12T16:13:56.029Z,26.90
2022-09-12T16:16:23.003Z,26.70
2022-09-12T16:18:49.886Z,26.40
2022-09-12T16:21:16.718Z,26.10
2022-09-12T16:23:44.727Z,25.80
2022-09-12T16:26:11.538Z,25.80
2022-09-12T16:28:38.965Z,25.80
2022-09-12T16:31:07.423Z,25.70
2022-09-12T16:33:35.051Z,25.50
2022-09-12T16:36:10.652Z,25.40
2022-09-12T16:38:45.495Z,25.40
2022-09-12T16:41:12.981Z,25.30
2022-09-12T16:43:40.483Z,25.20
2022-09-12T16:46:16.372Z,25.30
2022-09-12T16:48:52.628Z,25.20
2022-09-12T16:51:26.668Z,25.20
2022-09-12T16:53:55.471Z,25.10
2022-09-12T16:56:22.874Z,25.00
2022-09-12T16:58:49.850Z,24.90
2022-09-12T17:01:19.124Z,24.90
2022-09-12T17:03:46.281Z,24.80
2022-09-12T17:06:16.559Z,24.70
2022-09-12T17:08:46.436Z,24.60
2022-09-12T17:11:19.503Z,24.50
2022-09-12T17:14:10.121Z,24.50
2022-09-12T17:16:42.340Z,24.40
2022-09-12T17:19:17.294Z,24.20
2022-09-12T17:21:47.111Z,24.10
2022-09-12T17:24:13.947Z,24.00
2022-09-12T17:26:40.798Z,24.00
2022-09-12T17:29:07.731Z,23.80
2022-09-12T17:31:34.704Z,23.70
2022-09-12T17:34:02.044Z,23.70
2022-09-12T17:36:31.494Z,23.70
2022-09-12T17:38:58.695Z,23.60
2022-09-12T17:41:28.410Z,23.40
2022-09-12T17:43:57.254Z,23.30
2022-09-12T17:46:27.016Z,23.20
2022-09-12T17:48:56.372Z,23.10
2022-09-12T17:51:25.250Z,23.00
2022-09-12T17:54:01.273Z,22.90
2022-09-12T17:56:30.805Z,22.90
2022-09-12T17:58:59.169Z,22.70
2022-09-12T18:01:46.646Z,22.70
2022-09-12T18:04:13.740Z,22.60
2022-09-12T18:06:47.787Z,22.50
2022-09-12T18:09:19.401Z,22.40
2022-09-12T18:11:46.940Z,22.30
2022-09-12T18:14:14.478Z,22.20
2022-09-12T18:16:43.198Z,22.20
2022-09-12T18:19:11.269Z,22.10
2022-09-12T18:21:38.413Z,22.20
2022-09-12T18:24:05.726Z,22.00
2022-09-12T18:26:32.955Z,21.90
2022-09-12T18:29:00.020Z,21.90
2022-09-12T18:31:29.747Z,21.80
2022-09-12T18:33:57.392Z,21.80
2022-09-12T18:36:24.202Z,21.80
2022-09-12T18:38:51.336Z,21.70
2022-09-12T18:41:23.463Z,21.70
2022-09-12T18:43:57.670Z,21.60
2022-09-12T18:46:25.238Z,21.50
2022-09-12T18:48:52.255Z,21.50
2022-09-12T18:51:21.743Z,21.50
2022-09-12T18:53:54.885Z,21.40
2022-09-12T18:56:23.473Z,21.40
2022-09-12T18:58:52.813Z,21.40
2022-09-12T19:01:22.144Z,21.40
2022-09-12T19:03:49.821Z,21.30
2022-09-12T19:06:22.430Z,21.20
2022-09-12T19:08:50.860Z,21.20
2022-09-12T19:11:18.268Z,21.20
2022-09-12T19:13:48.903Z,21.20
2022-09-12T19:16:19.858Z,21.20
2022-09-12T19:18:49.922Z,21.20
2022-09-12T19:21:19.312Z,21.10
2022-09-12T19:23:46.492Z,21.10
2022-09-12T19:26:15.383Z,21.10
2022-09-12T19:28:43.328Z,21.00
2022-09-12T19:31:12.783Z,20.90
2022-09-12T19:33:40.574Z,20.80
2022-09-12T19:36:33.624Z,20.90
2022-09-12T19:38:58.509Z,20.90
2022-09-12T19:41:25.469Z,20.80
2022-09-12T19:43:52.383Z,20.80
2022-09-12T19:46:22.000Z,20.70
2022-09-12T19:48:49.623Z,20.70
2022-09-12T19:51:17.804Z,20.70
2022-09-12T19:53:45.508Z,20.70
2022-09-12T19:56:14.434Z,20.70
2022-09-12T19:58:44.339Z,20.70
2022-09-12T20:01:20.895Z,20.60
2022-09-12T20:03:49.057Z,20.60
2022-09-12T20:06:17.758Z,20.50
2022-09-12T20:08:45.852Z,20.60
2022-09-12T20:11:14.877Z,20.50
2022-09-12T20:13:42.062Z,20.50
2022-09-12T20:16:11.705Z,20.40
2022-09-12T20:18:38.917Z,20.40
2022-09-12T20:21:17.377Z,20.40
2022-09-12T20:23:45.167Z,20.30
2022-09-12T20:26:12.674Z,20.20
2022-09-12T20:28:41.246Z,20.20
2022-09-12T20:31:13.247Z,20.20
2022-09-12T20:33:40.657Z,20.20
2022-09-12T20:36:12.688Z,20.20
2022-09-12T20:38:40.463Z,20.20
2022-09-12T20:41:09.947Z,20.20
2022-09-12T20:43:38.806Z,20.10
2022-09-12T20:46:10.490Z,20.10
2022-09-12T20:48:40.574Z,20.00
2022-09-12T20:51:08.048Z,20.00
2022-09-12T20:53:35.612Z,20.00
2022-09-12T20:56:03.511Z,19.90
2022-09-12T20:58:30.357Z,20.10
2022-09-12T21:00:57.518Z,20.00
2022-09-12T21:03:25.623Z,19.80
2022-09-12T21:05:52.890Z,19.60
2022-09-12T21:08:19.845Z,19.40
2022-09-12T21:10:46.734Z,19.40
2022-09-12T21:13:14.031Z,19.20
2022-09-12T21:15:42.182Z,19.00
2022-09-12T21:18:09.423Z,19.00
2022-09-12T21:20:36.396Z,18.90
2022-09-12T21:23:03.262Z,19.00
2022-09-12T21:25:30.395Z,18.90
2022-09-12T21:27:57.377Z,18.80
2022-09-12T21:30:24.229Z,18.70
2022-09-12T21:32:51.122Z,18.50
2022-09-12T21:35:18.014Z,18.50
2022-09-12T21:37:44.953Z,18.30
2022-09-12T21:40:12.074Z,18.30
2022-09-12T21:42:38.983Z,18.10
2022-09-12T21:45:06.368Z,18.10
2022-09-12T21:47:33.295Z,18.10
2022-09-12T21:50:00.174Z,18.10
2022-09-12T21:52:27.675Z,18.00
2022-09-12T21:54:54.558Z,18.00
2022-09-12T21:57:21.545Z,18.00
2022-09-12T21:59:48.473Z,18.00
2022-09-12T22:02:16.114Z,17.90
2022-09-12T22:04:43.158Z,17.90
2022-09-12T22:07:10.781Z,17.90
2022-09-12T22:09:37.765Z,17.90
2022-09-12T22:12:04.812Z,17.90
2022-09-12T22:14:31.715Z,18.00
2022-09-12T22:16:58.980Z,17.80
2022-09-12T22:19:26.473Z,17.70
2022-09-12T22:22:12.222Z,17.70
2022-09-12T22:24:39.164Z,17.50
2022-09-12T22:27:06.806Z,17.40
2022-09-12T22:29:34.663Z,17.40
2022-09-12T22:32:01.738Z,17.40
2022-09-12T22:34:29.310Z,17.40
2022-09-12T22:36:56.703Z,17.30
2022-09-12T22:39:24.342Z,17.30
2022-09-12T22:41:51.260Z,17.20
2022-09-12T22:44:18.507Z,17.20
2022-09-12T22:46:45.423Z,17.10
2022-09-12T22:49:12.894Z,17.00
2022-09-12T22:51:39.899Z,17.00
2022-09-12T22:54:07.520Z,16.90
2022-09-12T22:56:35.134Z,16.90
2022-09-12T22:59:02.081Z,16.80
2022-09-12T23:01:28.990Z,16.90
2022-09-12T23:03:55.868Z,16.90
2022-09-12T23:06:22.756Z,16.80
2022-09-12T23:08:49.630Z,16.80
2022-09-12T23:11:19.261Z,16.80
2022-09-12T23:13:47.694Z,16.70
2022-09-12T23:16:21.353Z,16.80
2022-09-12T23:18:49.074Z,16.70
2022-09-12T23:21:18.225Z,16.70
2022-09-12T23:23:45.266Z,16.60
2022-09-12T23:26:23.520Z,16.60
2022-09-12T23:28:54.051Z,16.60
2022-09-12T23:31:26.159Z,16.50
2022-09-12T23:33:54.142Z,16.50
2022-09-12T23:36:22.451Z,16.40
2022-09-12T23:38:49.702Z,16.40
2022-09-12T23:41:18.438Z,16.40
2022-09-12T23:43:46.104Z,16.30
2022-09-12T23:46:14.629Z,16.30
2022-09-12T23:48:42.481Z,16.30
2022-09-12T23:51:10.142Z,16.20
2022-09-12T23:53:37.258Z,16.10
2022-09-12T23:56:05.006Z,16.10
2022-09-12T23:58:32.179Z,16.00
